sensor_id;sensor_type;location;lat;lon;timestamp;temperature;humidity
27384;DHT22;14851;51.166;4.760;2024-01-07T00:00:05;3.90;99.90
27384;DHT22;14851;51.166;4.760;2024-01-07T00:02:33;3.80;99.90
27384;DHT22;14851;51.166;4.760;2024-01-07T00:04:59;3.80;99.90
27384;DHT22;14851;51.166;4.760;2024-01-07T00:07:27;3.80;99.90
27384;DHT22;14851;51.166;4.760;2024-01-07T00:09:57;3.80;99.90
27384;DHT22;14851;51.166;4.760;2024-01-07T00:12:23;3.70;99.90
27384;DHT22;14851;51.166;4.760;2024-01-07T00:14:50;3.70;99.90
27384;DHT22;14851;51.166;4.760;2024-01-07T00:17:19;3.70;99.90
27384;DHT22;14851;51.166;4.760;2024-01-07T00:19:45;3.70;99.90
27384;DHT22;14851;51.166;4.760;2024-01-07T00:22:12;3.70;99.90
27384;DHT22;14851;51.166;4.760;2024-01-07T00:24:42;3.70;99.90
27384;DHT22;14851;51.166;4.760;2024-01-07T00:27:10;3.70;99.90
27384;DHT22;14851;51.166;4.760;2024-01-07T00:29:36;3.70;99.90
27384;DHT22;14851;51.166;4.760;2024-01-07T00:32:03;3.70;99.90
27384;DHT22;14851;51.166;4.760;2024-01-07T00:34:30;3.70;99.90
27384;DHT22;14851;51.166;4.760;2024-01-07T00:36:55;3.70;99.90
27384;DHT22;14851;51.166;4.760;2024-01-07T00:39:21;3.70;99.90
27384;DHT22;14851;51.166;4.760;2024-01-07T00:41:47;3.70;99.90
27384;DHT22;14851;51.166;4.760;2024-01-07T00:44:13;3.60;99.90
27384;DHT22;14851;51.166;4.760;2024-01-07T00:46:41;3.60;99.90
27384;DHT22;14851;51.166;4.760;2024-01-07T00:49:09;3.60;99.90
27384;DHT22;14851;51.166;4.760;2024-01-07T00:51:43;3.60;99.90
27384;DHT22;14851;51.166;4.760;2024-01-07T00:54:09;3.60;99.90
27384;DHT22;14851;51.166;4.760;2024-01-07T00:56:35;3.60;99.90
27384;DHT22;14851;51.166;4.760;2024-01-07T00:59:01;3.60;99.90
27384;DHT22;14851;51.166;4.760;2024-01-07T01:01:30;3.60;99.90
27384;DHT22;14851;51.166;4.760;2024-01-07T01:03:56;3.60;99.90
27384;DHT22;14851;51.166;4.760;2024-01-07T01:06:24;3.50;99.90
27384;DHT22;14851;51.166;4.760;2024-01-07T01:08:50;3.50;99.90
27384;DHT22;14851;51.166;4.760;2024-01-07T01:11:15;3.50;99.90
27384;DHT22;14851;51.166;4.760;2024-01-07T01:13:41;3.50;99.90
27384;DHT22;14851;51.166;4.760;2024-01-07T01:16:07;3.50;99.90
27384;DHT22;14851;51.166;4.760;2024-01-07T01:18:34;3.50;99.90
27384;DHT22;14851;51.166;4.760;2024-01-07T01:21:02;3.50;99.90
27384;DHT22;14851;51.166;4.760;2024-01-07T01:23:28;3.50;99.90
27384;DHT22;14851;51.166;4.760;2024-01-07T01:25:56;3.50;99.90
27384;DHT22;14851;51.166;4.760;2024-01-07T01:28:22;3.50;99.90
27384;DHT22;14851;51.166;4.760;2024-01-07T01:30:50;3.50;99.90
27384;DHT22;14851;51.166;4.760;2024-01-07T01:33:22;3.50;99.90
27384;DHT22;14851;51.166;4.760;2024-01-07T01:35:49;3.40;99.90
27384;DHT22;14851;51.166;4.760;2024-01-07T01:38:15;3.40;99.90
27384;DHT22;14851;51.166;4.760;2024-01-07T01:40:41;3.50;99.90
27384;DHT22;14851;51.166;4.760;2024-01-07T01:43:08;3.40;99.90
27384;DHT22;14851;51.166;4.760;2024-01-07T01:45:34;3.40;99.90
27384;DHT22;14851;51.166;4.760;2024-01-07T01:48:01;3.40;99.90
27384;DHT22;14851;51.166;4.760;2024-01-07T01:50:26;3.40;99.90
27384;DHT22;14851;51.166;4.760;2024-01-07T01:52:54;3.40;99.90
27384;DHT22;14851;51.166;4.760;2024-01-07T01:55:23;3.40;99.90
27384;DHT22;14851;51.166;4.760;2024-01-07T01:57:49;3.40;99.90
27384;DHT22;14851;51.166;4.760;2024-01-07T02:00:17;3.40;99.90
27384;DHT22;14851;51.166;4.760;2024-01-07T02:02:43;3.40;99.90
27384;DHT22;14851;51.166;4.760;2024-01-07T02:05:12;3.40;99.90
27384;DHT22;14851;51.166;4.760;2024-01-07T02:07:39;3.40;99.90
27384;DHT22;14851;51.166;4.760;2024-01-07T02:10:05;3.40;99.90
27384;DHT22;14851;51.166;4.760;2024-01-07T02:12:31;3.30;99.90
27384;DHT22;14851;51.166;4.760;2024-01-07T02:14:58;3.30;99.90
27384;DHT22;14851;51.166;4.760;2024-01-07T02:17:23;3.30;99.90
27384;DHT22;14851;51.166;4.760;2024-01-07T02:19:50;3.30;99.90
27384;DHT22;14851;51.166;4.760;2024-01-07T02:22:16;3.30;99.90
27384;DHT22;14851;51.166;4.760;2024-01-07T02:24:42;3.30;99.90
27384;DHT22;14851;51.166;4.760;2024-01-07T02:27:08;3.20;99.90
27384;DHT22;14851;51.166;4.760;2024-01-07T02:29:34;3.20;99.90
27384;DHT22;14851;51.166;4.760;2024-01-07T02:32:00;3.30;99.90
27384;DHT22;14851;51.166;4.760;2024-01-07T02:34:26;3.30;99.90
27384;DHT22;14851;51.166;4.760;2024-01-07T02:36:52;3.30;99.90
27384;DHT22;14851;51.166;4.760;2024-01-07T02:39:19;3.30;99.90
27384;DHT22;14851;51.166;4.760;2024-01-07T02:41:45;3.20;99.90
27384;DHT22;14851;51.166;4.760;2024-01-07T02:44:14;3.20;99.90
27384;DHT22;14851;51.166;4.760;2024-01-07T02:46:43;3.20;99.90
27384;DHT22;14851;51.166;4.760;2024-01-07T02:49:11;3.20;99.90
27384;DHT22;14851;51.166;4.760;2024-01-07T02:51:36;3.20;99.90
27384;DHT22;14851;51.166;4.760;2024-01-07T02:54:02;3.20;99.90
27384;DHT22;14851;51.166;4.760;2024-01-07T02:56:33;3.20;99.90
27384;DHT22;14851;51.166;4.760;2024-01-07T02:58:59;3.20;99.90
27384;DHT22;14851;51.166;4.760;2024-01-07T03:01:27;3.20;99.90
27384;DHT22;14851;51.166;4.760;2024-01-07T03:03:53;3.20;99.90
27384;DHT22;14851;51.166;4.760;2024-01-07T03:06:19;3.20;99.90
27384;DHT22;14851;51.166;4.760;2024-01-07T03:08:45;3.20;99.90
27384;DHT22;14851;51.166;4.760;2024-01-07T03:11:13;3.20;99.90
27384;DHT22;14851;51.166;4.760;2024-01-07T03:13:40;3.10;99.90
27384;DHT22;14851;51.166;4.760;2024-01-07T03:16:08;3.10;99.90
27384;DHT22;14851;51.166;4.760;2024-01-07T03:18:44;3.10;99.90
27384;DHT22;14851;51.166;4.760;2024-01-07T03:21:19;3.10;99.90
27384;DHT22;14851;51.166;4.760;2024-01-07T03:23:47;3.10;99.90
27384;DHT22;14851;51.166;4.760;2024-01-07T03:26:22;3.10;99.90
27384;DHT22;14851;51.166;4.760;2024-01-07T03:28:48;3.20;99.90
27384;DHT22;14851;51.166;4.760;2024-01-07T03:31:15;3.20;99.90
27384;DHT22;14851;51.166;4.760;2024-01-07T03:33:42;3.10;99.90
27384;DHT22;14851;51.166;4.760;2024-01-07T03:36:09;3.10;99.90
27384;DHT22;14851;51.166;4.760;2024-01-07T03:38:36;3.10;99.90
27384;DHT22;14851;51.166;4.760;2024-01-07T03:41:04;3.10;99.90
27384;DHT22;14851;51.166;4.760;2024-01-07T03:43:34;3.10;99.90
27384;DHT22;14851;51.166;4.760;2024-01-07T03:46:03;3.10;99.90
27384;DHT22;14851;51.166;4.760;2024-01-07T03:48:29;3.10;99.90
27384;DHT22;14851;51.166;4.760;2024-01-07T03:50:58;3.10;99.90
27384;DHT22;14851;51.166;4.760;2024-01-07T03:53:23;3.10;99.90
27384;DHT22;14851;51.166;4.760;2024-01-07T03:55:49;3.10;99.90
27384;DHT22;14851;51.166;4.760;2024-01-07T03:58:15;3.10;99.90
27384;DHT22;14851;51.166;4.760;2024-01-07T04:00:41;3.10;99.90
27384;DHT22;14851;51.166;4.760;2024-01-07T04:03:08;3.10;99.90
27384;DHT22;14851;51.166;4.760;2024-01-07T04:05:35;3.10;99.90
27384;DHT22;14851;51.166;4.760;2024-01-07T04:08:02;3.10;99.90
27384;DHT22;14851;51.166;4.760;2024-01-07T04:10:28;3.10;99.90
27384;DHT22;14851;51.166;4.760;2024-01-07T04:12:54;3.10;99.90
27384;DHT22;14851;51.166;4.760;2024-01-07T04:15:20;3.10;99.90
27384;DHT22;14851;51.166;4.760;2024-01-07T04:17:46;3.00;99.90
27384;DHT22;14851;51.166;4.760;2024-01-07T04:20:15;3.00;99.90
27384;DHT22;14851;51.166;4.760;2024-01-07T04:22:41;3.00;99.90
27384;DHT22;14851;51.166;4.760;2024-01-07T04:25:07;3.00;99.90
27384;DHT22;14851;51.166;4.760;2024-01-07T04:27:35;3.00;99.90
27384;DHT22;14851;51.166;4.760;2024-01-07T04:30:01;3.00;99.90
27384;DHT22;14851;51.166;4.760;2024-01-07T04:32:28;3.00;99.90
27384;DHT22;14851;51.166;4.760;2024-01-07T04:34:53;3.00;99.90
27384;DHT22;14851;51.166;4.760;2024-01-07T04:37:19;3.00;99.90
27384;DHT22;14851;51.166;4.760;2024-01-07T04:39:45;3.00;99.90
27384;DHT22;14851;51.166;4.760;2024-01-07T04:42:14;3.00;99.90
27384;DHT22;14851;51.166;4.760;2024-01-07T04:44:40;3.00;99.90
27384;DHT22;14851;51.166;4.760;2024-01-07T04:47:28;3.00;99.90
27384;DHT22;14851;51.166;4.760;2024-01-07T04:49:55;3.00;99.90
27384;DHT22;14851;51.166;4.760;2024-01-07T04:52:24;3.00;99.90
27384;DHT22;14851;51.166;4.760;2024-01-07T04:54:52;2.90;99.90
27384;DHT22;14851;51.166;4.760;2024-01-07T04:57:21;3.00;99.90
27384;DHT22;14851;51.166;4.760;2024-01-07T04:59:51;3.00;99.90
27384;DHT22;14851;51.166;4.760;2024-01-07T05:02:19;3.00;99.90
27384;DHT22;14851;51.166;4.760;2024-01-07T05:04:45;3.00;99.90
27384;DHT22;14851;51.166;4.760;2024-01-07T05:07:14;2.90;99.90
27384;DHT22;14851;51.166;4.760;2024-01-07T05:09:40;2.90;99.90
27384;DHT22;14851;51.166;4.760;2024-01-07T05:12:06;3.00;99.90
27384;DHT22;14851;51.166;4.760;2024-01-07T05:14:32;3.00;99.90
27384;DHT22;14851;51.166;4.760;2024-01-07T05:16:59;3.00;99.90
27384;DHT22;14851;51.166;4.760;2024-01-07T05:19:25;2.90;99.90
27384;DHT22;14851;51.166;4.760;2024-01-07T05:21:50;2.90;99.90
27384;DHT22;14851;51.166;4.760;2024-01-07T05:24:16;2.90;99.90
27384;DHT22;14851;51.166;4.760;2024-01-07T05:26:43;2.90;99.90
27384;DHT22;14851;51.166;4.760;2024-01-07T05:29:10;2.90;99.90
27384;DHT22;14851;51.166;4.760;2024-01-07T05:31:41;2.90;99.90
27384;DHT22;14851;51.166;4.760;2024-01-07T05:34:08;2.90;99.90
27384;DHT22;14851;51.166;4.760;2024-01-07T05:36:36;2.90;99.90
27384;DHT22;14851;51.166;4.760;2024-01-07T05:39:05;2.90;99.90
27384;DHT22;14851;51.166;4.760;2024-01-07T05:41:33;2.90;99.90
27384;DHT22;14851;51.166;4.760;2024-01-07T05:43:58;2.90;99.90
27384;DHT22;14851;51.166;4.760;2024-01-07T05:46:24;2.90;99.90
27384;DHT22;14851;51.166;4.760;2024-01-07T05:48:53;2.90;99.90
27384;DHT22;14851;51.166;4.760;2024-01-07T05:51:18;2.90;99.90
27384;DHT22;14851;51.166;4.760;2024-01-07T05:53:45;3.00;99.90
27384;DHT22;14851;51.166;4.760;2024-01-07T05:56:11;2.90;99.90
27384;DHT22;14851;51.166;4.760;2024-01-07T05:58:37;2.90;99.90
27384;DHT22;14851;51.166;4.760;2024-01-07T06:01:03;2.90;99.90
27384;DHT22;14851;51.166;4.760;2024-01-07T06:03:28;2.80;99.90
27384;DHT22;14851;51.166;4.760;2024-01-07T06:05:55;2.80;99.90
27384;DHT22;14851;51.166;4.760;2024-01-07T06:08:21;2.80;99.90
27384;DHT22;14851;51.166;4.760;2024-01-07T06:10:46;2.90;99.90
27384;DHT22;14851;51.166;4.760;2024-01-07T06:13:12;2.80;99.90
27384;DHT22;14851;51.166;4.760;2024-01-07T06:15:38;2.90;99.90
27384;DHT22;14851;51.166;4.760;2024-01-07T06:18:04;2.90;99.90
27384;DHT22;14851;51.166;4.760;2024-01-07T06:20:30;2.90;99.90
27384;DHT22;14851;51.166;4.760;2024-01-07T06:22:56;2.90;99.90
27384;DHT22;14851;51.166;4.760;2024-01-07T06:25:22;2.90;99.90
27384;DHT22;14851;51.166;4.760;2024-01-07T06:27:52;2.80;99.90
27384;DHT22;14851;51.166;4.760;2024-01-07T06:30:18;2.80;99.90
27384;DHT22;14851;51.166;4.760;2024-01-07T06:32:45;2.80;99.90
27384;DHT22;14851;51.166;4.760;2024-01-07T06:35:11;2.80;99.90
27384;DHT22;14851;51.166;4.760;2024-01-07T06:37:38;2.90;99.90
27384;DHT22;14851;51.166;4.760;2024-01-07T06:40:04;2.90;99.90
27384;DHT22;14851;51.166;4.760;2024-01-07T06:42:29;2.90;99.90
27384;DHT22;14851;51.166;4.760;2024-01-07T06:44:55;2.90;99.90
27384;DHT22;14851;51.166;4.760;2024-01-07T06:47:21;2.90;99.90
27384;DHT22;14851;51.166;4.760;2024-01-07T06:49:48;2.90;99.90
27384;DHT22;14851;51.166;4.760;2024-01-07T06:52:14;2.80;99.90
27384;DHT22;14851;51.166;4.760;2024-01-07T06:54:39;2.80;99.90
27384;DHT22;14851;51.166;4.760;2024-01-07T06:57:05;2.90;99.90
27384;DHT22;14851;51.166;4.760;2024-01-07T06:59:34;2.80;99.90
27384;DHT22;14851;51.166;4.760;2024-01-07T07:01:59;2.90;99.90
27384;DHT22;14851;51.166;4.760;2024-01-07T07:04:25;2.80;99.90
27384;DHT22;14851;51.166;4.760;2024-01-07T07:06:51;2.80;99.90
27384;DHT22;14851;51.166;4.760;2024-01-07T07:09:17;2.80;99.90
27384;DHT22;14851;51.166;4.760;2024-01-07T07:11:43;2.80;99.90
27384;DHT22;14851;51.166;4.760;2024-01-07T07:14:13;2.80;99.90
27384;DHT22;14851;51.166;4.760;2024-01-07T07:16:41;2.80;99.90
27384;DHT22;14851;51.166;4.760;2024-01-07T07:19:09;2.80;99.90
27384;DHT22;14851;51.166;4.760;2024-01-07T07:21:40;2.80;99.90
27384;DHT22;14851;51.166;4.760;2024-01-07T07:24:06;2.70;99.90
27384;DHT22;14851;51.166;4.760;2024-01-07T07:26:32;2.70;99.90
27384;DHT22;14851;51.166;4.760;2024-01-07T07:29:01;2.70;99.90
27384;DHT22;14851;51.166;4.760;2024-01-07T07:31:27;2.70;99.90
27384;DHT22;14851;51.166;4.760;2024-01-07T07:33:56;2.70;99.90
27384;DHT22;14851;51.166;4.760;2024-01-07T07:36:22;2.70;99.90
27384;DHT22;14851;51.166;4.760;2024-01-07T07:38:49;2.70;99.90
27384;DHT22;14851;51.166;4.760;2024-01-07T07:41:18;2.70;99.90
27384;DHT22;14851;51.166;4.760;2024-01-07T07:43:44;2.70;99.90
27384;DHT22;14851;51.166;4.760;2024-01-07T07:46:10;2.70;99.90
27384;DHT22;14851;51.166;4.760;2024-01-07T07:48:38;2.70;99.90
27384;DHT22;14851;51.166;4.760;2024-01-07T07:51:05;2.70;99.90
27384;DHT22;14851;51.166;4.760;2024-01-07T07:53:31;2.70;99.90
27384;DHT22;14851;51.166;4.760;2024-01-07T07:55:57;2.70;99.90
27384;DHT22;14851;51.166;4.760;2024-01-07T07:58:26;2.70;99.90
27384;DHT22;14851;51.166;4.760;2024-01-07T08:00:52;2.70;99.90
27384;DHT22;14851;51.166;4.760;2024-01-07T08:03:18;2.70;99.90
27384;DHT22;14851;51.166;4.760;2024-01-07T08:05:46;2.70;99.90
27384;DHT22;14851;51.166;4.760;2024-01-07T08:08:12;2.70;99.90
27384;DHT22;14851;51.166;4.760;2024-01-07T08:10:40;2.70;99.90
27384;DHT22;14851;51.166;4.760;2024-01-07T08:13:06;2.70;99.90
27384;DHT22;14851;51.166;4.760;2024-01-07T08:15:32;2.70;99.90
27384;DHT22;14851;51.166;4.760;2024-01-07T08:17:58;2.80;99.90
27384;DHT22;14851;51.166;4.760;2024-01-07T08:20:24;2.90;99.90
27384;DHT22;14851;51.166;4.760;2024-01-07T08:22:49;3.00;99.90
27384;DHT22;14851;51.166;4.760;2024-01-07T08:25:16;3.00;99.90
27384;DHT22;14851;51.166;4.760;2024-01-07T08:27:41;3.00;99.90
27384;DHT22;14851;51.166;4.760;2024-01-07T08:30:10;3.00;99.90
27384;DHT22;14851;51.166;4.760;2024-01-07T08:32:37;3.00;99.90
27384;DHT22;14851;51.166;4.760;2024-01-07T08:35:03;3.00;99.90
27384;DHT22;14851;51.166;4.760;2024-01-07T08:37:30;3.00;99.90
27384;DHT22;14851;51.166;4.760;2024-01-07T08:39:56;3.00;99.90
27384;DHT22;14851;51.166;4.760;2024-01-07T08:42:23;3.00;99.90
27384;DHT22;14851;51.166;4.760;2024-01-07T08:44:49;3.00;99.90
27384;DHT22;14851;51.166;4.760;2024-01-07T08:47:15;3.00;99.90
27384;DHT22;14851;51.166;4.760;2024-01-07T08:49:43;2.90;99.90
27384;DHT22;14851;51.166;4.760;2024-01-07T08:52:09;2.90;99.90
27384;DHT22;14851;51.166;4.760;2024-01-07T08:54:35;2.80;99.90
27384;DHT22;14851;51.166;4.760;2024-01-07T08:57:03;2.80;99.90
27384;DHT22;14851;51.166;4.760;2024-01-07T08:59:29;2.70;99.90
27384;DHT22;14851;51.166;4.760;2024-01-07T09:01:58;2.70;99.90
27384;DHT22;14851;51.166;4.760;2024-01-07T09:04:23;2.80;99.90
27384;DHT22;14851;51.166;4.760;2024-01-07T09:06:49;2.90;99.90
27384;DHT22;14851;51.166;4.760;2024-01-07T09:09:17;2.90;99.90
27384;DHT22;14851;51.166;4.760;2024-01-07T09:11:43;2.90;99.90
27384;DHT22;14851;51.166;4.760;2024-01-07T09:14:09;3.00;99.90
27384;DHT22;14851;51.166;4.760;2024-01-07T09:16:37;3.00;99.90
27384;DHT22;14851;51.166;4.760;2024-01-07T09:19:03;3.10;99.90
27384;DHT22;14851;51.166;4.760;2024-01-07T09:21:32;3.00;99.90
27384;DHT22;14851;51.166;4.760;2024-01-07T09:23:57;3.00;99.90
27384;DHT22;14851;51.166;4.760;2024-01-07T09:26:25;2.90;99.90
27384;DHT22;14851;51.166;4.760;2024-01-07T09:28:51;2.90;99.90
27384;DHT22;14851;51.166;4.760;2024-01-07T09:31:18;2.90;99.90
27384;DHT22;14851;51.166;4.760;2024-01-07T09:33:44;2.90;99.90
27384;DHT22;14851;51.166;4.760;2024-01-07T09:36:10;2.90;99.90
27384;DHT22;14851;51.166;4.760;2024-01-07T09:38:37;2.90;99.90
27384;DHT22;14851;51.166;4.760;2024-01-07T09:41:03;3.00;99.90
27384;DHT22;14851;51.166;4.760;2024-01-07T09:43:29;2.90;99.90
27384;DHT22;14851;51.166;4.760;2024-01-07T09:45:56;3.00;99.90
27384;DHT22;14851;51.166;4.760;2024-01-07T09:48:24;3.00;99.90
27384;DHT22;14851;51.166;4.760;2024-01-07T09:50:52;3.00;99.90
27384;DHT22;14851;51.166;4.760;2024-01-07T09:53:20;3.00;99.90
27384;DHT22;14851;51.166;4.760;2024-01-07T09:58:28;2.80;99.90
27384;DHT22;14851;51.166;4.760;2024-01-07T10:00:54;2.80;99.90
27384;DHT22;14851;51.166;4.760;2024-01-07T10:03:25;2.80;99.90
27384;DHT22;14851;51.166;4.760;2024-01-07T10:05:52;2.80;99.90
27384;DHT22;14851;51.166;4.760;2024-01-07T10:08:20;2.80;99.90
27384;DHT22;14851;51.166;4.760;2024-01-07T10:10:48;2.70;99.90
27384;DHT22;14851;51.166;4.760;2024-01-07T10:13:14;2.60;99.90
27384;DHT22;14851;51.166;4.760;2024-01-07T10:15:41;2.70;99.90
27384;DHT22;14851;51.166;4.760;2024-01-07T10:18:07;2.80;99.90
27384;DHT22;14851;51.166;4.760;2024-01-07T10:20:36;2.90;99.90
27384;DHT22;14851;51.166;4.760;2024-01-07T10:23:03;2.90;99.90
27384;DHT22;14851;51.166;4.760;2024-01-07T10:25:32;3.00;99.90
27384;DHT22;14851;51.166;4.760;2024-01-07T10:28:04;3.00;99.90
27384;DHT22;14851;51.166;4.760;2024-01-07T10:30:30;3.00;99.90
27384;DHT22;14851;51.166;4.760;2024-01-07T10:32:59;2.90;99.90
27384;DHT22;14851;51.166;4.760;2024-01-07T10:35:32;3.00;99.90
27384;DHT22;14851;51.166;4.760;2024-01-07T10:37:59;3.00;99.90
27384;DHT22;14851;51.166;4.760;2024-01-07T10:40:29;3.00;99.90
27384;DHT22;14851;51.166;4.760;2024-01-07T10:42:55;3.00;99.90
27384;DHT22;14851;51.166;4.760;2024-01-07T10:45:22;3.00;99.90
27384;DHT22;14851;51.166;4.760;2024-01-07T10:47:49;3.00;99.90
27384;DHT22;14851;51.166;4.760;2024-01-07T10:50:18;3.00;99.90
27384;DHT22;14851;51.166;4.760;2024-01-07T10:52:49;3.00;99.90
27384;DHT22;14851;51.166;4.760;2024-01-07T10:55:19;3.00;99.90
27384;DHT22;14851;51.166;4.760;2024-01-07T10:57:47;3.00;99.90
27384;DHT22;14851;51.166;4.760;2024-01-07T11:00:14;3.00;99.90
27384;DHT22;14851;51.166;4.760;2024-01-07T11:05:52;3.00;99.90
27384;DHT22;14851;51.166;4.760;2024-01-07T11:08:34;2.90;99.90
27384;DHT22;14851;51.166;4.760;2024-01-07T11:11:25;2.80;99.90
27384;DHT22;14851;51.166;4.760;2024-01-07T11:13:51;2.80;99.90
27384;DHT22;14851;51.166;4.760;2024-01-07T11:16:43;2.70;99.90
27384;DHT22;14851;51.166;4.760;2024-01-07T11:19:15;2.70;99.90
27384;DHT22;14851;51.166;4.760;2024-01-07T11:21:40;2.70;99.90
27384;DHT22;14851;51.166;4.760;2024-01-07T11:24:07;2.60;99.90
27384;DHT22;14851;51.166;4.760;2024-01-07T11:26:34;2.60;99.90
27384;DHT22;14851;51.166;4.760;2024-01-07T11:29:00;2.70;99.90
27384;DHT22;14851;51.166;4.760;2024-01-07T11:34:09;2.80;99.90
27384;DHT22;14851;51.166;4.760;2024-01-07T11:36:36;2.90;99.90
27384;DHT22;14851;51.166;4.760;2024-01-07T11:39:03;2.90;99.90
27384;DHT22;14851;51.166;4.760;2024-01-07T11:41:33;2.90;99.90
27384;DHT22;14851;51.166;4.760;2024-01-07T11:44:00;2.80;99.90
27384;DHT22;14851;51.166;4.760;2024-01-07T11:46:30;2.80;99.90
27384;DHT22;14851;51.166;4.760;2024-01-07T11:49:01;2.80;99.90
27384;DHT22;14851;51.166;4.760;2024-01-07T11:51:28;2.80;99.90
27384;DHT22;14851;51.166;4.760;2024-01-07T11:53:59;2.70;99.90
27384;DHT22;14851;51.166;4.760;2024-01-07T11:56:26;2.70;99.90
27384;DHT22;14851;51.166;4.760;2024-01-07T11:58:52;2.70;99.90
27384;DHT22;14851;51.166;4.760;2024-01-07T12:01:18;2.70;99.90
27384;DHT22;14851;51.166;4.760;2024-01-07T12:03:45;2.80;99.90
27384;DHT22;14851;51.166;4.760;2024-01-07T12:06:12;2.70;99.90
27384;DHT22;14851;51.166;4.760;2024-01-07T12:08:42;2.60;99.90
27384;DHT22;14851;51.166;4.760;2024-01-07T12:11:09;2.60;99.90
27384;DHT22;14851;51.166;4.760;2024-01-07T12:13:37;2.50;99.90
27384;DHT22;14851;51.166;4.760;2024-01-07T12:16:06;2.50;99.90
27384;DHT22;14851;51.166;4.760;2024-01-07T12:18:33;2.50;99.90
27384;DHT22;14851;51.166;4.760;2024-01-07T12:21:00;2.50;99.90
27384;DHT22;14851;51.166;4.760;2024-01-07T12:23:26;2.50;99.90
27384;DHT22;14851;51.166;4.760;2024-01-07T12:25:54;2.50;99.90
27384;DHT22;14851;51.166;4.760;2024-01-07T12:28:26;2.60;99.90
27384;DHT22;14851;51.166;4.760;2024-01-07T12:30:52;2.60;99.90
27384;DHT22;14851;51.166;4.760;2024-01-07T12:33:19;2.70;99.90
27384;DHT22;14851;51.166;4.760;2024-01-07T12:35:47;2.80;99.90
27384;DHT22;14851;51.166;4.760;2024-01-07T12:38:13;2.80;99.90
27384;DHT22;14851;51.166;4.760;2024-01-07T12:40:41;2.90;99.90
27384;DHT22;14851;51.166;4.760;2024-01-07T12:43:07;2.90;99.90
27384;DHT22;14851;51.166;4.760;2024-01-07T12:45:33;2.90;99.90
27384;DHT22;14851;51.166;4.760;2024-01-07T12:48:01;2.90;99.90
27384;DHT22;14851;51.166;4.760;2024-01-07T12:50:30;3.00;99.90
27384;DHT22;14851;51.166;4.760;2024-01-07T12:52:57;3.00;99.90
27384;DHT22;14851;51.166;4.760;2024-01-07T12:55:24;3.00;99.90
27384;DHT22;14851;51.166;4.760;2024-01-07T12:57:52;3.00;99.90
27384;DHT22;14851;51.166;4.760;2024-01-07T13:00:18;3.00;99.90
27384;DHT22;14851;51.166;4.760;2024-01-07T13:02:47;3.00;99.90
27384;DHT22;14851;51.166;4.760;2024-01-07T13:05:15;3.00;99.90
27384;DHT22;14851;51.166;4.760;2024-01-07T13:07:41;2.90;99.90
27384;DHT22;14851;51.166;4.760;2024-01-07T13:10:09;2.90;99.90
27384;DHT22;14851;51.166;4.760;2024-01-07T13:12:36;2.90;99.90
27384;DHT22;14851;51.166;4.760;2024-01-07T13:15:06;2.90;99.90
27384;DHT22;14851;51.166;4.760;2024-01-07T13:17:32;2.90;99.90
27384;DHT22;14851;51.166;4.760;2024-01-07T13:20:01;2.80;99.90
27384;DHT22;14851;51.166;4.760;2024-01-07T13:22:28;2.80;99.90
27384;DHT22;14851;51.166;4.760;2024-01-07T13:24:54;2.80;99.90
27384;DHT22;14851;51.166;4.760;2024-01-07T13:27:20;2.70;99.90
27384;DHT22;14851;51.166;4.760;2024-01-07T13:29:48;2.70;99.90
27384;DHT22;14851;51.166;4.760;2024-01-07T13:32:14;2.60;99.90
27384;DHT22;14851;51.166;4.760;2024-01-07T13:34:44;2.60;99.90
27384;DHT22;14851;51.166;4.760;2024-01-07T13:37:10;2.60;99.90
27384;DHT22;14851;51.166;4.760;2024-01-07T13:39:37;2.70;99.90
27384;DHT22;14851;51.166;4.760;2024-01-07T13:42:04;2.70;99.90
27384;DHT22;14851;51.166;4.760;2024-01-07T13:44:30;2.80;99.90
27384;DHT22;14851;51.166;4.760;2024-01-07T13:47:05;2.80;99.90
27384;DHT22;14851;51.166;4.760;2024-01-07T13:49:31;2.80;99.90
27384;DHT22;14851;51.166;4.760;2024-01-07T13:51:58;2.80;99.90
27384;DHT22;14851;51.166;4.760;2024-01-07T13:54:26;2.80;99.90
27384;DHT22;14851;51.166;4.760;2024-01-07T13:56:54;2.80;99.90
27384;DHT22;14851;51.166;4.760;2024-01-07T13:59:20;2.80;99.90
27384;DHT22;14851;51.166;4.760;2024-01-07T14:01:47;2.90;99.90
27384;DHT22;14851;51.166;4.760;2024-01-07T14:04:13;2.90;99.90
27384;DHT22;14851;51.166;4.760;2024-01-07T14:06:39;2.80;99.90
27384;DHT22;14851;51.166;4.760;2024-01-07T14:09:05;2.80;99.90
27384;DHT22;14851;51.166;4.760;2024-01-07T14:11:34;2.80;99.90
27384;DHT22;14851;51.166;4.760;2024-01-07T14:14:00;2.80;99.90
27384;DHT22;14851;51.166;4.760;2024-01-07T14:16:27;2.90;99.90
27384;DHT22;14851;51.166;4.760;2024-01-07T14:18:56;2.90;99.90
27384;DHT22;14851;51.166;4.760;2024-01-07T14:21:22;2.80;99.90
27384;DHT22;14851;51.166;4.760;2024-01-07T14:23:48;2.80;99.90
27384;DHT22;14851;51.166;4.760;2024-01-07T14:26:14;2.80;99.90
27384;DHT22;14851;51.166;4.760;2024-01-07T14:28:40;2.70;99.90
27384;DHT22;14851;51.166;4.760;2024-01-07T14:31:06;2.70;99.90
27384;DHT22;14851;51.166;4.760;2024-01-07T14:33:32;2.60;99.90
27384;DHT22;14851;51.166;4.760;2024-01-07T14:36:02;2.60;99.90
27384;DHT22;14851;51.166;4.760;2024-01-07T14:38:28;2.60;99.90
27384;DHT22;14851;51.166;4.760;2024-01-07T14:40:54;2.60;99.90
27384;DHT22;14851;51.166;4.760;2024-01-07T14:43:24;2.50;99.90
27384;DHT22;14851;51.166;4.760;2024-01-07T14:45:50;2.50;99.90
27384;DHT22;14851;51.166;4.760;2024-01-07T14:48:16;2.40;99.90
27384;DHT22;14851;51.166;4.760;2024-01-07T14:50:41;2.30;99.90
27384;DHT22;14851;51.166;4.760;2024-01-07T14:53:13;2.30;99.90
27384;DHT22;14851;51.166;4.760;2024-01-07T14:55:39;2.40;99.90
27384;DHT22;14851;51.166;4.760;2024-01-07T14:58:08;2.40;99.90
27384;DHT22;14851;51.166;4.760;2024-01-07T15:00:36;2.40;99.90
27384;DHT22;14851;51.166;4.760;2024-01-07T15:03:03;2.40;99.90
27384;DHT22;14851;51.166;4.760;2024-01-07T15:05:29;2.50;99.90
27384;DHT22;14851;51.166;4.760;2024-01-07T15:07:54;2.50;99.90
27384;DHT22;14851;51.166;4.760;2024-01-07T15:10:22;2.50;99.90
27384;DHT22;14851;51.166;4.760;2024-01-07T15:12:51;2.50;99.90
27384;DHT22;14851;51.166;4.760;2024-01-07T15:15:20;2.50;99.90
27384;DHT22;14851;51.166;4.760;2024-01-07T15:17:48;2.40;99.90
27384;DHT22;14851;51.166;4.760;2024-01-07T15:20:14;2.40;99.90
27384;DHT22;14851;51.166;4.760;2024-01-07T15:22:40;2.40;99.90
27384;DHT22;14851;51.166;4.760;2024-01-07T15:25:07;2.40;99.90
27384;DHT22;14851;51.166;4.760;2024-01-07T15:27:33;2.40;99.90
27384;DHT22;14851;51.166;4.760;2024-01-07T15:29:59;2.40;99.90
27384;DHT22;14851;51.166;4.760;2024-01-07T15:32:24;2.40;99.90
27384;DHT22;14851;51.166;4.760;2024-01-07T15:34:52;2.50;99.90
27384;DHT22;14851;51.166;4.760;2024-01-07T15:37:18;2.50;99.90
27384;DHT22;14851;51.166;4.760;2024-01-07T15:39:43;2.50;99.90
27384;DHT22;14851;51.166;4.760;2024-01-07T15:42:12;2.40;99.90
27384;DHT22;14851;51.166;4.760;2024-01-07T15:44:38;2.40;99.90
27384;DHT22;14851;51.166;4.760;2024-01-07T15:47:06;2.30;99.90
27384;DHT22;14851;51.166;4.760;2024-01-07T15:49:34;2.20;99.90
27384;DHT22;14851;51.166;4.760;2024-01-07T15:52:02;2.20;99.90